Time,TemperatureF,DewpointF,PressureIn,WindDirection,WindDirectionDegrees,WindSpeedMPH,WindSpeedGustMPH,Humidity,HourlyPrecipIn,Conditions,Clouds,dailyrainin,SoftwareType,DateUTC
2013-01-31 00:03:00,36.0,34.0,29.65,SW,233,13.0,22.0,94,0.00,,,1.21,,2013-01-31 05:03:00,
2013-01-31 00:11:00,36.0,34.0,29.65,SW,233,13.0,22.0,94,0.00,,,1.21,,2013-01-31 05:11:00,
2013-01-31 00:22:00,36.0,34.0,29.65,SW,219,15.0,25.0,93,0.00,,,1.14,,2013-01-31 05:22:00,
2013-01-31 00:32:00,36.0,34.0,29.65,SW,219,15.0,25.0,93,0.00,,,1.14,,2013-01-31 05:32:00,
2013-01-31 00:42:00,36.0,34.0,29.66,SW,225,12.0,31.0,94,0.00,,,1.14,,2013-01-31 05:42:00,
2013-01-31 00:52:00,36.0,34.0,29.66,SW,225,12.0,31.0,94,0.00,,,1.14,,2013-01-31 05:52:00,
2013-01-31 01:01:00,36.0,34.0,29.66,SW,225,12.0,31.0,94,0.00,,,1.14,,2013-01-31 06:01:00,
2013-01-31 01:11:00,36.0,34.0,29.66,SW,225,12.0,31.0,94,0.00,,,1.14,,2013-01-31 06:11:00,
2013-01-31 09:03:00,22.0,17.0,30.00,East,84,8.0,25.0,82,0.00,,,1.04,,2013-01-31 14:03:00,
2013-01-31 09:11:00,22.0,17.0,30.00,East,84,8.0,25.0,82,0.00,,,1.04,,2013-01-31 14:11:00,
2013-01-31 09:22:00,22.0,17.0,30.01,NNW,327,9.0,17.0,81,0.00,,,1.01,,2013-01-31 14:22:00,
2013-01-31 09:32:00,22.0,16.0,30.02,WNW,285,10.0,24.0,79,0.00,,,1.01,,2013-01-31 14:32:00,
2013-01-31 09:42:00,22.0,16.0,30.02,WNW,285,10.0,24.0,79,0.00,,,1.01,,2013-01-31 14:42:00,
2013-01-31 09:52:00,23.0,17.0,30.02,WNW,295,13.0,24.0,78,0.00,,,1.01,,2013-01-31 14:52:00,
2013-01-31 10:03:00,23.0,17.0,30.03,WNW,282,9.0,26.0,76,0.00,,,1.01,,2013-01-31 15:03:00,
2013-01-31 10:12:00,23.0,17.0,30.03,WNW,282,9.0,26.0,76,0.00,,,1.01,,2013-01-31 15:12:00,
2013-01-31 10:23:00,23.0,16.0,30.04,West,274,12.0,27.0,74,0.00,,,0.97,,2013-01-31 15:23:00,
2013-01-31 10:32:00,24.0,17.0,30.05,NW,304,8.0,24.0,75,0.00,,,0.97,,2013-01-31 15:32:00,
2013-01-31 10:42:00,24.0,17.0,30.05,NW,304,8.0,24.0,75,0.00,,,0.97,,2013-01-31 15:42:00,
2013-01-31 10:52:00,25.0,17.0,30.05,NW,307,8.0,20.0,72,0.00,,,0.97,,2013-01-31 15:52:00,
2013-01-31 11:03:00,25.0,17.0,30.05,WNW,298,6.0,22.0,72,0.00,,,0.97,,2013-01-31 16:03:00,
2013-01-31 11:13:00,25.0,17.0,30.05,WNW,298,6.0,22.0,72,0.00,,,0.97,,2013-01-31 16:13:00,
2013-01-31 11:22:00,26.0,18.0,30.05,SW,221,9.0,15.0,71,0.00,,,0.88,,2013-01-31 16:22:00,
2013-01-31 11:33:00,27.0,19.0,30.06,SSW,205,6.0,14.0,70,0.00,,,0.88,,2013-01-31 16:33:00,
2013-01-31 11:42:00,27.0,19.0,30.06,SSW,205,6.0,14.0,70,0.00,,,0.88,,2013-01-31 16:42:00,
2013-01-31 11:52:00,27.0,17.0,30.07,WNW,291,10.0,26.0,65,0.00,,,0.88,,2013-01-31 16:52:00,
2013-01-31 12:03:00,27.0,18.0,30.08,WNW,302,7.0,24.0,69,0.00,,,0.88,,2013-01-31 17:03:00,
2013-01-31 12:13:00,27.0,18.0,30.08,WNW,302,7.0,24.0,69,0.00,,,0.88,,2013-01-31 17:13:00,
2013-01-31 12:23:00,29.0,18.0,30.08,SW,232,7.0,20.0,64,0.00,,,0.85,,2013-01-31 17:23:00,
2013-01-31 12:32:00,28.0,16.0,30.08,SSE,165,22.0,30.0,61,0.00,,,0.85,,2013-01-31 17:32:00,
2013-01-31 12:43:00,28.0,16.0,30.08,SSE,165,22.0,30.0,61,0.00,,,0.85,,2013-01-31 17:43:00,
2013-01-31 12:53:00,29.0,18.0,30.09,West,278,13.0,29.0,64,0.00,,,0.85,,2013-01-31 17:53:00,
2013-01-31 13:03:00,30.0,21.0,30.09,SW,221,6.0,18.0,68,0.00,,,0.85,,2013-01-31 18:03:00,
2013-01-31 13:12:00,30.0,20.0,30.10,SSW,210,4.0,15.0,66,0.00,,,0.76,,2013-01-31 18:12:00,
2013-01-31 13:22:00,30.0,20.0,30.10,SSW,210,4.0,15.0,66,0.00,,,0.76,,2013-01-31 18:22:00,
2013-01-31 13:32:00,31.0,20.0,30.10,NNW,344,9.0,22.0,64,0.00,,,0.76,,2013-01-31 18:32:00,
2013-01-31 13:43:00,31.0,20.0,30.10,NNW,344,9.0,22.0,64,0.00,,,0.76,,2013-01-31 18:43:00,
2013-01-31 13:52:00,30.0,18.0,30.11,NW,308,11.0,25.0,61,0.00,,,0.76,,2013-01-31 18:52:00,
2013-01-31 14:02:00,31.0,19.0,30.11,WNW,293,9.0,21.0,60,0.00,,,0.76,,2013-01-31 19:02:00,
2013-01-31 14:12:00,31.0,19.0,30.11,WNW,293,9.0,21.0,60,0.00,,,0.76,,2013-01-31 19:12:00,
2013-01-31 14:22:00,31.0,18.0,30.11,SSW,207,13.0,26.0,58,0.00,,,0.71,,2013-01-31 19:22:00,
2013-01-31 14:33:00,31.0,17.0,30.12,WNW,290,14.0,28.0,55,0.00,,,0.71,,2013-01-31 19:33:00,
2013-01-31 14:42:00,31.0,17.0,30.12,WNW,290,14.0,28.0,55,0.00,,,0.71,,2013-01-31 19:42:00,
2013-01-31 14:52:00,32.0,19.0,30.12,WSW,243,11.0,27.0,58,0.00,,,0.71,,2013-01-31 19:52:00,
2013-01-31 15:02:00,32.0,18.0,30.14,WNW,298,10.0,26.0,55,0.00,,,0.71,,2013-01-31 20:02:00,
2013-01-31 15:12:00,32.0,18.0,30.14,WNW,298,10.0,26.0,55,0.00,,,0.71,,2013-01-31 20:12:00,
2013-01-31 15:22:00,32.0,18.0,30.14,WNW,293,9.0,23.0,56,0.00,,,0.49,,2013-01-31 20:22:00,
2013-01-31 15:32:00,32.0,18.0,30.14,WNW,285,11.0,37.0,56,0.00,,,0.49,,2013-01-31 20:32:00,
2013-01-31 15:42:00,32.0,18.0,30.14,WNW,285,11.0,37.0,56,0.00,,,0.49,,2013-01-31 20:42:00,
2013-01-31 15:52:00,32.0,17.0,30.15,West,263,17.0,33.0,53,0.00,,,0.49,,2013-01-31 20:52:00,
2013-01-31 16:02:00,33.0,17.0,30.15,West,278,11.0,23.0,52,0.00,,,0.49,,2013-01-31 21:02:00,
2013-01-31 16:12:00,33.0,17.0,30.15,West,278,11.0,23.0,52,0.00,,,0.49,,2013-01-31 21:12:00,
2013-01-31 16:22:00,33.0,17.0,30.17,WNW,293,11.0,24.0,52,0.00,,,0.31,,2013-01-31 21:22:00,
2013-01-31 16:32:00,33.0,17.0,30.16,WSW,243,10.0,26.0,52,0.00,,,0.31,,2013-01-31 21:32:00,
2013-01-31 16:42:00,33.0,17.0,30.16,WSW,243,10.0,26.0,52,0.00,,,0.31,,2013-01-31 21:42:00,
2013-01-31 16:52:00,34.0,19.0,30.17,NNW,335,5.0,15.0,54,0.00,,,0.31,,2013-01-31 21:52:00,
2013-01-31 17:03:00,33.0,18.0,30.17,WNW,295,8.0,23.0,54,0.00,,,0.31,,2013-01-31 22:03:00,
2013-01-31 17:11:00,33.0,18.0,30.17,WNW,295,8.0,23.0,54,0.00,,,0.31,,2013-01-31 22:11:00,
2013-01-31 17:22:00,33.0,19.0,30.17,WNW,288,6.0,21.0,55,0.00,,,0.13,,2013-01-31 22:22:00,
2013-01-31 17:33:00,32.0,18.0,30.19,NW,322,7.0,16.0,55,0.00,,,0.13,,2013-01-31 22:33:00,
2013-01-31 17:42:00,32.0,18.0,30.19,NW,322,7.0,16.0,55,0.00,,,0.13,,2013-01-31 22:42:00,
2013-01-31 17:52:00,32.0,18.0,30.18,NW,323,4.0,15.0,56,0.00,,,0.13,,2013-01-31 22:52:00,
2013-01-31 18:03:00,31.0,16.0,30.19,NW,309,12.0,20.0,54,0.00,,,0.13,,2013-01-31 23:03:00,
2013-01-31 18:12:00,31.0,16.0,30.19,NW,309,12.0,20.0,54,0.00,,,0.13,,2013-01-31 23:12:00,
2013-01-31 18:22:00,30.0,17.0,30.19,NW,308,6.0,15.0,57,0.00,,,0.08,,2013-01-31 23:22:00,
2013-01-31 18:32:00,29.0,17.0,30.19,SW,218,5.0,11.0,61,0.00,,,0.08,,2013-01-31 23:32:00,
2013-01-31 18:42:00,29.0,17.0,30.19,SW,218,5.0,11.0,61,0.00,,,0.08,,2013-01-31 23:42:00,
2013-01-31 18:52:00,29.0,17.0,30.20,ENE,77,9.0,15.0,60,0.00,,,0.08,,2013-01-31 23:52:00,
2013-01-31 19:02:00,29.0,18.0,30.21,NNW,335,7.0,15.0,63,0.00,,,0.08,,2013-02-01 00:02:00,
2013-01-31 19:11:00,29.0,18.0,30.21,NNW,335,7.0,15.0,63,0.00,,,0.08,,2013-02-01 00:11:00,
2013-01-31 19:22:00,29.0,18.0,30.21,WSW,248,6.0,18.0,62,0.00,,,0.04,,2013-02-01 00:22:00,
2013-01-31 19:32:00,29.0,19.0,30.22,NNW,328,7.0,13.0,65,0.00,,,0.04,,2013-02-01 00:32:00,
2013-01-31 19:42:00,29.0,19.0,30.22,NNW,328,7.0,13.0,65,0.00,,,0.04,,2013-02-01 00:42:00,
2013-01-31 19:52:00,29.0,18.0,30.22,NW,304,5.0,16.0,63,0.00,,,0.04,,2013-02-01 00:52:00,
2013-01-31 20:01:00,29.0,18.0,30.22,West,281,12.0,25.0,64,0.00,,,0.04,,2013-02-01 01:01:00,
2013-01-31 20:11:00,29.0,18.0,30.23,NW,319,13.0,24.0,64,0.00,,,0.00,,2013-02-01 01:11:00,
2013-01-31 20:21:00,29.0,18.0,30.23,NW,319,13.0,24.0,64,0.00,,,0.00,,2013-02-01 01:21:00,
2013-01-31 20:32:00,29.0,18.0,30.23,WNW,297,13.0,26.0,63,0.00,,,0.00,,2013-02-01 01:32:00,
2013-01-31 20:42:00,29.0,18.0,30.23,WNW,297,13.0,26.0,63,0.00,,,0.00,,2013-02-01 01:42:00,
2013-01-31 20:52:00,29.0,18.0,30.23,East,92,11.0,26.0,64,0.00,,,0.00,,2013-02-01 01:52:00,
2013-01-31 21:02:00,29.0,18.0,30.23,WSW,238,15.0,28.0,64,0.00,,,0.00,,2013-02-01 02:02:00,
2013-01-31 21:11:00,29.0,18.0,30.23,WSW,238,15.0,28.0,64,0.00,,,0.00,,2013-02-01 02:11:00,
2013-01-31 21:21:00,29.0,18.0,30.24,SW,231,19.0,34.0,64,0.00,,,0.00,,2013-02-01 02:21:00,
2013-01-31 21:32:00,29.0,19.0,30.25,WNW,300,10.0,24.0,65,0.00,,,0.00,,2013-02-01 02:32:00,
2013-01-31 21:42:00,29.0,19.0,30.25,WNW,300,10.0,24.0,65,0.00,,,0.00,,2013-02-01 02:42:00,
2013-01-31 21:52:00,29.0,19.0,30.26,West,273,16.0,26.0,65,0.00,,,0.00,,2013-02-01 02:52:00,
2013-01-31 22:02:00,29.0,19.0,30.25,ENE,63,17.0,30.0,66,0.00,,,0.00,,2013-02-01 03:02:00,
2013-01-31 22:12:00,29.0,19.0,30.25,ENE,63,17.0,30.0,66,0.00,,,0.00,,2013-02-01 03:12:00,
2013-01-31 22:21:00,29.0,20.0,30.24,SW,221,13.0,28.0,68,0.00,,,0.00,,2013-02-01 03:21:00,
2013-01-31 22:33:00,29.0,20.0,30.25,SW,226,12.0,30.0,69,0.00,,,0.00,,2013-02-01 03:33:00,
2013-01-31 22:42:00,29.0,20.0,30.25,SW,226,12.0,30.0,69,0.00,,,0.00,,2013-02-01 03:42:00,
2013-01-31 22:52:00,29.0,20.0,30.25,SW,235,13.0,27.0,68,0.00,,,0.00,,2013-02-01 03:52:00,
2013-01-31 23:02:00,29.0,20.0,30.25,ESE,105,13.0,24.0,68,0.00,,,0.00,,2013-02-01 04:02:00,
2013-01-31 23:11:00,29.0,20.0,30.25,ESE,105,13.0,24.0,68,0.00,,,0.00,,2013-02-01 04:11:00,
2013-01-31 23:21:00,29.0,20.0,30.26,WSW,245,11.0,30.0,68,0.00,,,0.00,,2013-02-01 04:21:00,
2013-01-31 23:32:00,29.0,20.0,30.27,WSW,240,11.0,23.0,70,0.00,,,0.00,,2013-02-01 04:32:00,
2013-01-31 23:42:00,29.0,20.0,30.27,WSW,240,11.0,23.0,70,0.00,,,0.00,,2013-02-01 04:42:00,
2013-01-31 23:52:00,29.0,20.0,30.27,WSW,240,11.0,23.0,70,0.00,,,0.00,,2013-02-01 04:52:00,